sensor_id;sensor_type;location;lat;lon;timestamp;P1;durP1;ratioP1;P2;durP2;ratioP2
10162;SDS011;5123;52.556;13.384;2023-08-17T00:01:32;4.63;;;3.70;;
10162;SDS011;5123;52.556;13.384;2023-08-17T00:04:05;6.93;;;3.63;;
10162;SDS011;5123;52.556;13.384;2023-08-17T00:06:39;7.60;;;3.70;;
10162;SDS011;5123;52.556;13.384;2023-08-17T00:09:12;5.47;;;3.40;;
10162;SDS011;5123;52.556;13.384;2023-08-17T00:11:45;6.23;;;3.53;;
10162;SDS011;5123;52.556;13.384;2023-08-17T00:14:18;5.03;;;3.37;;
10162;SDS011;5123;52.556;13.384;2023-08-17T00:16:50;3.93;;;3.53;;
10162;SDS011;5123;52.556;13.384;2023-08-17T00:19:23;6.40;;;3.90;;
10162;SDS011;5123;52.556;13.384;2023-08-17T00:21:57;6.53;;;3.27;;
10162;SDS011;5123;52.556;13.384;2023-08-17T00:24:30;4.47;;;3.20;;
10162;SDS011;5123;52.556;13.384;2023-08-17T00:27:03;5.57;;;3.63;;
10162;SDS011;5123;52.556;13.384;2023-08-17T00:29:36;6.07;;;3.33;;
10162;SDS011;5123;52.556;13.384;2023-08-17T00:32:08;5.30;;;3.47;;
10162;SDS011;5123;52.556;13.384;2023-08-17T00:34:43;5.13;;;3.47;;
10162;SDS011;5123;52.556;13.384;2023-08-17T00:37:17;5.93;;;3.47;;
10162;SDS011;5123;52.556;13.384;2023-08-17T00:39:53;3.73;;;3.30;;
10162;SDS011;5123;52.556;13.384;2023-08-17T00:42:28;5.80;;;3.10;;
10162;SDS011;5123;52.556;13.384;2023-08-17T00:45:01;6.40;;;3.60;;
10162;SDS011;5123;52.556;13.384;2023-08-17T00:47:33;4.20;;;3.60;;
10162;SDS011;5123;52.556;13.384;2023-08-17T00:50:07;4.73;;;3.60;;
10162;SDS011;5123;52.556;13.384;2023-08-17T00:52:41;6.23;;;3.93;;
10162;SDS011;5123;52.556;13.384;2023-08-17T00:55:14;4.63;;;3.47;;
10162;SDS011;5123;52.556;13.384;2023-08-17T00:57:47;5.93;;;3.40;;
10162;SDS011;5123;52.556;13.384;2023-08-17T01:00:20;5.77;;;3.60;;
10162;SDS011;5123;52.556;13.384;2023-08-17T01:02:53;7.93;;;3.70;;
10162;SDS011;5123;52.556;13.384;2023-08-17T01:05:26;4.93;;;3.63;;
10162;SDS011;5123;52.556;13.384;2023-08-17T01:08:01;3.57;;;3.27;;
10162;SDS011;5123;52.556;13.384;2023-08-17T01:10:36;5.83;;;3.90;;
10162;SDS011;5123;52.556;13.384;2023-08-17T01:13:11;6.23;;;3.40;;
10162;SDS011;5123;52.556;13.384;2023-08-17T01:15:46;4.77;;;3.63;;
10162;SDS011;5123;52.556;13.384;2023-08-17T01:18:21;6.90;;;4.03;;
10162;SDS011;5123;52.556;13.384;2023-08-17T01:20:54;6.13;;;3.63;;
10162;SDS011;5123;52.556;13.384;2023-08-17T01:23:31;4.67;;;3.70;;
10162;SDS011;5123;52.556;13.384;2023-08-17T01:26:04;7.40;;;4.00;;
10162;SDS011;5123;52.556;13.384;2023-08-17T01:28:36;4.50;;;3.60;;
10162;SDS011;5123;52.556;13.384;2023-08-17T01:31:17;5.37;;;3.70;;
10162;SDS011;5123;52.556;13.384;2023-08-17T01:33:55;6.23;;;3.80;;
10162;SDS011;5123;52.556;13.384;2023-08-17T01:36:30;7.50;;;3.67;;
10162;SDS011;5123;52.556;13.384;2023-08-17T01:39:05;4.40;;;3.77;;
10162;SDS011;5123;52.556;13.384;2023-08-17T01:41:39;5.97;;;3.53;;
10162;SDS011;5123;52.556;13.384;2023-08-17T01:44:13;6.77;;;3.70;;
10162;SDS011;5123;52.556;13.384;2023-08-17T01:46:46;4.93;;;4.00;;
10162;SDS011;5123;52.556;13.384;2023-08-17T01:49:21;5.67;;;3.97;;
10162;SDS011;5123;52.556;13.384;2023-08-17T01:51:54;6.47;;;4.07;;
10162;SDS011;5123;52.556;13.384;2023-08-17T01:54:30;5.70;;;3.70;;
10162;SDS011;5123;52.556;13.384;2023-08-17T01:57:02;4.57;;;3.77;;
10162;SDS011;5123;52.556;13.384;2023-08-17T01:59:35;5.70;;;3.70;;
10162;SDS011;5123;52.556;13.384;2023-08-17T02:02:08;4.50;;;3.40;;
10162;SDS011;5123;52.556;13.384;2023-08-17T02:04:42;4.80;;;4.00;;
10162;SDS011;5123;52.556;13.384;2023-08-17T02:07:15;5.73;;;3.43;;
10162;SDS011;5123;52.556;13.384;2023-08-17T02:09:49;6.40;;;3.70;;
10162;SDS011;5123;52.556;13.384;2023-08-17T02:12:22;4.67;;;4.13;;
10162;SDS011;5123;52.556;13.384;2023-08-17T02:14:55;4.73;;;4.30;;
10162;SDS011;5123;52.556;13.384;2023-08-17T02:17:28;7.20;;;4.17;;
10162;SDS011;5123;52.556;13.384;2023-08-17T02:20:00;6.10;;;3.93;;
10162;SDS011;5123;52.556;13.384;2023-08-17T02:22:34;4.63;;;3.90;;
10162;SDS011;5123;52.556;13.384;2023-08-17T02:25:08;6.73;;;4.67;;
10162;SDS011;5123;52.556;13.384;2023-08-17T02:27:41;5.40;;;3.93;;
10162;SDS011;5123;52.556;13.384;2023-08-17T02:30:14;7.70;;;4.10;;
10162;SDS011;5123;52.556;13.384;2023-08-17T02:32:46;8.80;;;4.03;;
10162;SDS011;5123;52.556;13.384;2023-08-17T02:35:19;8.03;;;4.30;;
10162;SDS011;5123;52.556;13.384;2023-08-17T02:37:55;4.27;;;3.23;;
10162;SDS011;5123;52.556;13.384;2023-08-17T02:40:33;4.07;;;3.67;;
10162;SDS011;5123;52.556;13.384;2023-08-17T02:43:05;5.10;;;4.10;;
10162;SDS011;5123;52.556;13.384;2023-08-17T02:45:41;4.30;;;3.93;;
10162;SDS011;5123;52.556;13.384;2023-08-17T02:48:13;7.20;;;3.83;;
10162;SDS011;5123;52.556;13.384;2023-08-17T02:50:48;6.67;;;3.50;;
10162;SDS011;5123;52.556;13.384;2023-08-17T02:53:21;4.17;;;3.53;;
10162;SDS011;5123;52.556;13.384;2023-08-17T02:55:55;6.50;;;3.93;;
10162;SDS011;5123;52.556;13.384;2023-08-17T02:58:28;4.40;;;3.80;;
10162;SDS011;5123;52.556;13.384;2023-08-17T03:01:02;5.20;;;3.40;;
10162;SDS011;5123;52.556;13.384;2023-08-17T03:03:34;5.97;;;3.70;;
10162;SDS011;5123;52.556;13.384;2023-08-17T03:06:10;5.20;;;2.87;;
10162;SDS011;5123;52.556;13.384;2023-08-17T03:08:42;5.60;;;3.33;;
10162;SDS011;5123;52.556;13.384;2023-08-17T03:11:18;4.83;;;3.50;;
10162;SDS011;5123;52.556;13.384;2023-08-17T03:13:52;5.17;;;3.30;;
10162;SDS011;5123;52.556;13.384;2023-08-17T03:16:31;3.73;;;2.83;;
10162;SDS011;5123;52.556;13.384;2023-08-17T03:19:03;3.40;;;3.10;;
10162;SDS011;5123;52.556;13.384;2023-08-17T03:21:38;3.37;;;2.97;;
10162;SDS011;5123;52.556;13.384;2023-08-17T03:24:14;5.47;;;3.27;;
10162;SDS011;5123;52.556;13.384;2023-08-17T03:26:48;6.27;;;2.87;;
10162;SDS011;5123;52.556;13.384;2023-08-17T03:29:20;4.33;;;2.83;;
10162;SDS011;5123;52.556;13.384;2023-08-17T03:31:53;6.23;;;3.97;;
10162;SDS011;5123;52.556;13.384;2023-08-17T03:34:27;4.13;;;2.93;;
10162;SDS011;5123;52.556;13.384;2023-08-17T03:37:03;4.10;;;3.00;;
10162;SDS011;5123;52.556;13.384;2023-08-17T03:39:35;4.97;;;3.07;;
10162;SDS011;5123;52.556;13.384;2023-08-17T03:42:09;8.20;;;3.70;;
10162;SDS011;5123;52.556;13.384;2023-08-17T03:44:42;6.20;;;3.30;;
10162;SDS011;5123;52.556;13.384;2023-08-17T03:47:15;3.60;;;2.90;;
10162;SDS011;5123;52.556;13.384;2023-08-17T03:49:47;6.60;;;3.03;;
10162;SDS011;5123;52.556;13.384;2023-08-17T03:52:26;3.47;;;2.43;;
10162;SDS011;5123;52.556;13.384;2023-08-17T03:55:00;6.40;;;3.23;;
10162;SDS011;5123;52.556;13.384;2023-08-17T03:57:35;4.97;;;2.87;;
10162;SDS011;5123;52.556;13.384;2023-08-17T04:00:10;4.07;;;2.80;;
10162;SDS011;5123;52.556;13.384;2023-08-17T04:02:43;4.00;;;2.77;;
10162;SDS011;5123;52.556;13.384;2023-08-17T04:05:16;5.70;;;3.47;;
10162;SDS011;5123;52.556;13.384;2023-08-17T04:07:48;3.17;;;2.73;;
10162;SDS011;5123;52.556;13.384;2023-08-17T04:10:22;3.20;;;2.77;;
10162;SDS011;5123;52.556;13.384;2023-08-17T04:12:56;3.27;;;2.80;;
10162;SDS011;5123;52.556;13.384;2023-08-17T04:15:29;4.30;;;2.80;;
10162;SDS011;5123;52.556;13.384;2023-08-17T04:18:03;3.37;;;2.53;;
10162;SDS011;5123;52.556;13.384;2023-08-17T04:20:36;4.50;;;2.70;;
10162;SDS011;5123;52.556;13.384;2023-08-17T04:23:09;5.63;;;2.50;;
10162;SDS011;5123;52.556;13.384;2023-08-17T04:25:42;5.80;;;2.70;;
10162;SDS011;5123;52.556;13.384;2023-08-17T04:28:16;4.67;;;2.60;;
10162;SDS011;5123;52.556;13.384;2023-08-17T04:30:48;3.10;;;2.73;;
10162;SDS011;5123;52.556;13.384;2023-08-17T04:33:21;3.73;;;3.10;;
10162;SDS011;5123;52.556;13.384;2023-08-17T04:35:53;3.30;;;2.50;;
10162;SDS011;5123;52.556;13.384;2023-08-17T04:38:26;3.77;;;2.70;;
10162;SDS011;5123;52.556;13.384;2023-08-17T04:40:59;5.43;;;2.60;;
10162;SDS011;5123;52.556;13.384;2023-08-17T04:43:33;5.03;;;3.17;;
10162;SDS011;5123;52.556;13.384;2023-08-17T04:46:07;5.93;;;2.60;;
10162;SDS011;5123;52.556;13.384;2023-08-17T04:48:40;6.03;;;3.00;;
10162;SDS011;5123;52.556;13.384;2023-08-17T04:51:12;4.47;;;2.63;;
10162;SDS011;5123;52.556;13.384;2023-08-17T04:53:47;3.53;;;2.80;;
10162;SDS011;5123;52.556;13.384;2023-08-17T04:56:20;3.90;;;2.83;;
10162;SDS011;5123;52.556;13.384;2023-08-17T04:58:54;4.50;;;2.83;;
10162;SDS011;5123;52.556;13.384;2023-08-17T05:01:27;4.63;;;2.43;;
10162;SDS011;5123;52.556;13.384;2023-08-17T05:03:59;3.63;;;2.90;;
10162;SDS011;5123;52.556;13.384;2023-08-17T05:06:32;3.50;;;2.47;;
10162;SDS011;5123;52.556;13.384;2023-08-17T05:09:05;5.07;;;2.97;;
10162;SDS011;5123;52.556;13.384;2023-08-17T05:11:38;4.23;;;2.70;;
10162;SDS011;5123;52.556;13.384;2023-08-17T05:14:12;5.23;;;2.93;;
10162;SDS011;5123;52.556;13.384;2023-08-17T05:16:44;3.20;;;2.57;;
10162;SDS011;5123;52.556;13.384;2023-08-17T05:19:17;3.53;;;2.57;;
10162;SDS011;5123;52.556;13.384;2023-08-17T05:21:50;4.30;;;2.70;;
10162;SDS011;5123;52.556;13.384;2023-08-17T05:24:22;5.63;;;2.40;;
10162;SDS011;5123;52.556;13.384;2023-08-17T05:26:55;6.50;;;2.77;;
10162;SDS011;5123;52.556;13.384;2023-08-17T05:29:30;3.47;;;2.47;;
10162;SDS011;5123;52.556;13.384;2023-08-17T05:32:04;3.20;;;2.90;;
10162;SDS011;5123;52.556;13.384;2023-08-17T05:34:38;6.03;;;2.90;;
10162;SDS011;5123;52.556;13.384;2023-08-17T05:37:10;3.97;;;2.60;;
10162;SDS011;5123;52.556;13.384;2023-08-17T05:39:43;6.00;;;2.70;;
10162;SDS011;5123;52.556;13.384;2023-08-17T05:42:18;3.93;;;2.37;;
10162;SDS011;5123;52.556;13.384;2023-08-17T05:44:52;6.37;;;2.90;;
10162;SDS011;5123;52.556;13.384;2023-08-17T05:47:25;3.73;;;2.50;;
10162;SDS011;5123;52.556;13.384;2023-08-17T05:49:58;2.93;;;2.50;;
10162;SDS011;5123;52.556;13.384;2023-08-17T05:52:31;4.93;;;2.90;;
10162;SDS011;5123;52.556;13.384;2023-08-17T05:55:05;3.57;;;2.20;;
10162;SDS011;5123;52.556;13.384;2023-08-17T05:57:38;4.07;;;2.80;;
10162;SDS011;5123;52.556;13.384;2023-08-17T06:00:12;2.80;;;2.60;;
10162;SDS011;5123;52.556;13.384;2023-08-17T06:02:45;2.57;;;2.30;;
10162;SDS011;5123;52.556;13.384;2023-08-17T06:05:22;3.00;;;2.80;;
10162;SDS011;5123;52.556;13.384;2023-08-17T06:07:56;4.07;;;2.80;;
10162;SDS011;5123;52.556;13.384;2023-08-17T06:10:29;3.07;;;2.60;;
10162;SDS011;5123;52.556;13.384;2023-08-17T06:13:02;3.87;;;2.80;;
10162;SDS011;5123;52.556;13.384;2023-08-17T06:15:36;6.23;;;2.67;;
10162;SDS011;5123;52.556;13.384;2023-08-17T06:18:09;8.40;;;3.40;;
10162;SDS011;5123;52.556;13.384;2023-08-17T06:20:41;4.97;;;2.87;;
10162;SDS011;5123;52.556;13.384;2023-08-17T06:23:14;5.97;;;3.60;;
10162;SDS011;5123;52.556;13.384;2023-08-17T06:25:48;5.80;;;3.00;;
10162;SDS011;5123;52.556;13.384;2023-08-17T06:28:20;5.03;;;3.17;;
10162;SDS011;5123;52.556;13.384;2023-08-17T06:30:55;4.83;;;3.47;;
10162;SDS011;5123;52.556;13.384;2023-08-17T06:33:30;3.23;;;2.93;;
10162;SDS011;5123;52.556;13.384;2023-08-17T06:36:03;5.30;;;2.67;;
10162;SDS011;5123;52.556;13.384;2023-08-17T06:38:36;8.07;;;2.80;;
10162;SDS011;5123;52.556;13.384;2023-08-17T06:41:08;5.53;;;3.33;;
10162;SDS011;5123;52.556;13.384;2023-08-17T06:43:44;6.20;;;2.90;;
10162;SDS011;5123;52.556;13.384;2023-08-17T06:46:18;3.57;;;2.93;;
10162;SDS011;5123;52.556;13.384;2023-08-17T06:48:51;5.20;;;3.30;;
10162;SDS011;5123;52.556;13.384;2023-08-17T06:51:25;5.27;;;4.33;;
10162;SDS011;5123;52.556;13.384;2023-08-17T06:53:58;5.37;;;3.40;;
10162;SDS011;5123;52.556;13.384;2023-08-17T06:56:31;6.60;;;3.03;;
10162;SDS011;5123;52.556;13.384;2023-08-17T06:59:03;3.83;;;2.90;;
10162;SDS011;5123;52.556;13.384;2023-08-17T07:01:38;5.67;;;3.07;;
10162;SDS011;5123;52.556;13.384;2023-08-17T07:04:10;6.20;;;3.40;;
10162;SDS011;5123;52.556;13.384;2023-08-17T07:06:43;3.63;;;2.90;;
10162;SDS011;5123;52.556;13.384;2023-08-17T07:09:15;7.50;;;3.23;;
10162;SDS011;5123;52.556;13.384;2023-08-17T07:11:48;3.93;;;2.60;;
10162;SDS011;5123;52.556;13.384;2023-08-17T07:14:21;4.23;;;2.73;;
10162;SDS011;5123;52.556;13.384;2023-08-17T07:16:55;5.97;;;3.00;;
10162;SDS011;5123;52.556;13.384;2023-08-17T07:19:28;7.27;;;2.90;;
10162;SDS011;5123;52.556;13.384;2023-08-17T07:22:21;5.77;;;3.30;;
10162;SDS011;5123;52.556;13.384;2023-08-17T07:24:53;6.87;;;3.10;;
10162;SDS011;5123;52.556;13.384;2023-08-17T07:27:26;3.73;;;2.70;;
10162;SDS011;5123;52.556;13.384;2023-08-17T07:29:59;8.83;;;3.57;;
10162;SDS011;5123;52.556;13.384;2023-08-17T07:32:33;3.67;;;2.97;;
10162;SDS011;5123;52.556;13.384;2023-08-17T07:35:06;5.60;;;3.50;;
10162;SDS011;5123;52.556;13.384;2023-08-17T07:37:40;4.40;;;3.03;;
10162;SDS011;5123;52.556;13.384;2023-08-17T07:40:23;6.47;;;3.47;;
10162;SDS011;5123;52.556;13.384;2023-08-17T07:42:57;4.83;;;3.50;;
10162;SDS011;5123;52.556;13.384;2023-08-17T07:45:34;4.77;;;3.40;;
10162;SDS011;5123;52.556;13.384;2023-08-17T07:48:08;3.83;;;3.20;;
10162;SDS011;5123;52.556;13.384;2023-08-17T07:50:41;4.43;;;2.73;;
10162;SDS011;5123;52.556;13.384;2023-08-17T07:53:14;8.77;;;3.50;;
10162;SDS011;5123;52.556;13.384;2023-08-17T07:55:46;3.43;;;3.10;;
10162;SDS011;5123;52.556;13.384;2023-08-17T07:58:22;5.47;;;2.87;;
10162;SDS011;5123;52.556;13.384;2023-08-17T08:00:55;4.90;;;3.33;;
10162;SDS011;5123;52.556;13.384;2023-08-17T08:03:29;6.83;;;2.80;;
10162;SDS011;5123;52.556;13.384;2023-08-17T08:06:01;6.20;;;3.20;;
10162;SDS011;5123;52.556;13.384;2023-08-17T08:08:34;7.03;;;3.00;;
10162;SDS011;5123;52.556;13.384;2023-08-17T08:11:07;6.30;;;2.83;;
10162;SDS011;5123;52.556;13.384;2023-08-17T08:13:41;4.33;;;3.23;;
10162;SDS011;5123;52.556;13.384;2023-08-17T08:16:14;3.90;;;3.03;;
10162;SDS011;5123;52.556;13.384;2023-08-17T08:18:48;3.57;;;2.97;;
10162;SDS011;5123;52.556;13.384;2023-08-17T08:21:21;6.70;;;3.33;;
10162;SDS011;5123;52.556;13.384;2023-08-17T08:23:54;10.20;;;3.87;;
10162;SDS011;5123;52.556;13.384;2023-08-17T08:26:27;6.33;;;3.67;;
10162;SDS011;5123;52.556;13.384;2023-08-17T08:28:59;9.30;;;3.07;;
10162;SDS011;5123;52.556;13.384;2023-08-17T08:31:32;4.07;;;3.10;;
10162;SDS011;5123;52.556;13.384;2023-08-17T08:34:16;6.83;;;3.30;;
10162;SDS011;5123;52.556;13.384;2023-08-17T08:36:51;7.53;;;3.70;;
10162;SDS011;5123;52.556;13.384;2023-08-17T08:39:26;3.63;;;3.20;;
10162;SDS011;5123;52.556;13.384;2023-08-17T08:41:59;5.10;;;3.57;;
10162;SDS011;5123;52.556;13.384;2023-08-17T08:44:32;6.17;;;3.60;;
10162;SDS011;5123;52.556;13.384;2023-08-17T08:47:07;4.20;;;3.40;;
10162;SDS011;5123;52.556;13.384;2023-08-17T08:49:44;5.93;;;3.37;;
10162;SDS011;5123;52.556;13.384;2023-08-17T08:52:22;4.77;;;3.60;;
10162;SDS011;5123;52.556;13.384;2023-08-17T08:54:55;4.47;;;3.63;;
10162;SDS011;5123;52.556;13.384;2023-08-17T08:57:30;8.37;;;4.17;;
10162;SDS011;5123;52.556;13.384;2023-08-17T09:00:03;4.23;;;3.50;;
10162;SDS011;5123;52.556;13.384;2023-08-17T09:02:37;5.40;;;3.40;;
10162;SDS011;5123;52.556;13.384;2023-08-17T09:05:11;3.90;;;3.33;;
10162;SDS011;5123;52.556;13.384;2023-08-17T09:07:44;3.90;;;3.50;;
10162;SDS011;5123;52.556;13.384;2023-08-17T09:10:17;4.17;;;3.13;;
10162;SDS011;5123;52.556;13.384;2023-08-17T09:12:50;6.80;;;3.70;;
10162;SDS011;5123;52.556;13.384;2023-08-17T09:15:23;3.97;;;3.57;;
10162;SDS011;5123;52.556;13.384;2023-08-17T09:17:56;6.37;;;3.60;;
10162;SDS011;5123;52.556;13.384;2023-08-17T09:20:39;4.23;;;3.67;;
10162;SDS011;5123;52.556;13.384;2023-08-17T09:23:18;3.90;;;3.50;;
10162;SDS011;5123;52.556;13.384;2023-08-17T09:25:51;4.50;;;3.67;;
10162;SDS011;5123;52.556;13.384;2023-08-17T09:28:29;4.40;;;4.00;;
10162;SDS011;5123;52.556;13.384;2023-08-17T09:31:04;6.93;;;3.60;;
10162;SDS011;5123;52.556;13.384;2023-08-17T09:33:37;5.10;;;3.80;;
10162;SDS011;5123;52.556;13.384;2023-08-17T09:36:19;5.13;;;3.83;;
10162;SDS011;5123;52.556;13.384;2023-08-17T09:38:52;4.67;;;4.20;;
10162;SDS011;5123;52.556;13.384;2023-08-17T09:41:29;4.43;;;3.90;;
10162;SDS011;5123;52.556;13.384;2023-08-17T09:44:02;4.20;;;3.80;;
10162;SDS011;5123;52.556;13.384;2023-08-17T09:46:35;4.75;;;3.40;;
10162;SDS011;5123;52.556;13.384;2023-08-17T09:49:07;4.50;;;3.70;;
10162;SDS011;5123;52.556;13.384;2023-08-17T09:51:43;4.37;;;3.67;;
10162;SDS011;5123;52.556;13.384;2023-08-17T09:54:24;5.40;;;3.90;;
10162;SDS011;5123;52.556;13.384;2023-08-17T09:56:58;6.53;;;4.10;;
10162;SDS011;5123;52.556;13.384;2023-08-17T09:59:31;6.13;;;3.47;;
10162;SDS011;5123;52.556;13.384;2023-08-17T10:02:13;6.93;;;3.28;;
10162;SDS011;5123;52.556;13.384;2023-08-17T10:04:49;4.57;;;3.42;;
10162;SDS011;5123;52.556;13.384;2023-08-17T10:07:26;8.82;;;3.50;;
10162;SDS011;5123;52.556;13.384;2023-08-17T10:10:05;5.38;;;3.95;;
10162;SDS011;5123;52.556;13.384;2023-08-17T10:12:40;4.73;;;4.20;;
10162;SDS011;5123;52.556;13.384;2023-08-17T10:15:17;3.88;;;3.50;;
10162;SDS011;5123;52.556;13.384;2023-08-17T10:17:53;5.43;;;3.38;;
10162;SDS011;5123;52.556;13.384;2023-08-17T10:20:29;4.22;;;3.83;;
10162;SDS011;5123;52.556;13.384;2023-08-17T10:23:06;5.28;;;3.60;;
10162;SDS011;5123;52.556;13.384;2023-08-17T10:25:40;4.00;;;3.60;;
10162;SDS011;5123;52.556;13.384;2023-08-17T10:28:21;3.83;;;3.40;;
10162;SDS011;5123;52.556;13.384;2023-08-17T10:30:57;8.07;;;3.77;;
10162;SDS011;5123;52.556;13.384;2023-08-17T10:33:30;5.03;;;3.60;;
10162;SDS011;5123;52.556;13.384;2023-08-17T10:36:03;4.07;;;3.47;;
10162;SDS011;5123;52.556;13.384;2023-08-17T10:38:40;4.85;;;3.70;;
10162;SDS011;5123;52.556;13.384;2023-08-17T10:41:14;4.05;;;3.70;;
10162;SDS011;5123;52.556;13.384;2023-08-17T10:43:52;5.05;;;3.95;;
10162;SDS011;5123;52.556;13.384;2023-08-17T10:46:31;4.07;;;3.67;;
10162;SDS011;5123;52.556;13.384;2023-08-17T10:49:05;5.25;;;3.85;;
10162;SDS011;5123;52.556;13.384;2023-08-17T10:51:38;5.75;;;3.60;;
10162;SDS011;5123;52.556;13.384;2023-08-17T10:54:16;4.70;;;4.25;;
10162;SDS011;5123;52.556;13.384;2023-08-17T10:56:49;6.05;;;4.28;;
10162;SDS011;5123;52.556;13.384;2023-08-17T10:59:26;4.10;;;3.70;;
10162;SDS011;5123;52.556;13.384;2023-08-17T11:01:58;4.75;;;3.63;;
10162;SDS011;5123;52.556;13.384;2023-08-17T11:04:32;4.47;;;3.85;;
10162;SDS011;5123;52.556;13.384;2023-08-17T11:07:05;4.38;;;3.90;;
10162;SDS011;5123;52.556;13.384;2023-08-17T11:09:49;4.80;;;4.10;;
10162;SDS011;5123;52.556;13.384;2023-08-17T11:12:25;8.93;;;4.10;;
10162;SDS011;5123;52.556;13.384;2023-08-17T11:15:00;5.80;;;4.32;;
10162;SDS011;5123;52.556;13.384;2023-08-17T11:17:33;4.10;;;3.70;;
10162;SDS011;5123;52.556;13.384;2023-08-17T11:20:06;4.03;;;3.65;;
10162;SDS011;5123;52.556;13.384;2023-08-17T11:22:51;4.38;;;3.90;;
10162;SDS011;5123;52.556;13.384;2023-08-17T11:25:25;5.18;;;4.50;;
10162;SDS011;5123;52.556;13.384;2023-08-17T11:28:03;6.07;;;4.70;;
10162;SDS011;5123;52.556;13.384;2023-08-17T11:30:36;5.20;;;4.70;;
10162;SDS011;5123;52.556;13.384;2023-08-17T11:33:11;4.80;;;4.38;;
10162;SDS011;5123;52.556;13.384;2023-08-17T11:35:44;4.22;;;3.83;;
10162;SDS011;5123;52.556;13.384;2023-08-17T11:38:17;4.80;;;4.22;;
10162;SDS011;5123;52.556;13.384;2023-08-17T11:40:51;4.38;;;3.97;;
10162;SDS011;5123;52.556;13.384;2023-08-17T11:43:24;5.28;;;4.43;;
10162;SDS011;5123;52.556;13.384;2023-08-17T11:45:56;4.75;;;4.35;;
10162;SDS011;5123;52.556;13.384;2023-08-17T11:48:29;5.15;;;4.32;;
10162;SDS011;5123;52.556;13.384;2023-08-17T11:51:07;4.65;;;4.03;;
10162;SDS011;5123;52.556;13.384;2023-08-17T11:53:41;9.15;;;4.20;;
10162;SDS011;5123;52.556;13.384;2023-08-17T11:56:21;4.90;;;4.50;;
10162;SDS011;5123;52.556;13.384;2023-08-17T11:58:53;4.45;;;4.05;;
10162;SDS011;5123;52.556;13.384;2023-08-17T12:01:26;5.07;;;4.57;;
10162;SDS011;5123;52.556;13.384;2023-08-17T12:04:05;5.25;;;4.60;;
10162;SDS011;5123;52.556;13.384;2023-08-17T12:06:43;6.53;;;5.00;;
10162;SDS011;5123;52.556;13.384;2023-08-17T12:09:16;5.03;;;4.57;;
10162;SDS011;5123;52.556;13.384;2023-08-17T12:11:52;5.50;;;5.00;;
10162;SDS011;5123;52.556;13.384;2023-08-17T12:14:26;6.38;;;5.53;;
10162;SDS011;5123;52.556;13.384;2023-08-17T12:16:59;6.65;;;5.97;;
10162;SDS011;5123;52.556;13.384;2023-08-17T12:19:31;5.57;;;4.90;;
10162;SDS011;5123;52.556;13.384;2023-08-17T12:22:06;5.28;;;4.72;;
10162;SDS011;5123;52.556;13.384;2023-08-17T12:24:39;5.45;;;4.95;;
10162;SDS011;5123;52.556;13.384;2023-08-17T12:27:13;5.75;;;5.15;;
10162;SDS011;5123;52.556;13.384;2023-08-17T12:29:46;5.35;;;4.78;;
10162;SDS011;5123;52.556;13.384;2023-08-17T12:32:23;5.35;;;4.85;;
10162;SDS011;5123;52.556;13.384;2023-08-17T12:34:56;7.20;;;5.00;;
10162;SDS011;5123;52.556;13.384;2023-08-17T12:37:29;6.40;;;5.78;;
10162;SDS011;5123;52.556;13.384;2023-08-17T12:40:02;6.13;;;5.50;;
10162;SDS011;5123;52.556;13.384;2023-08-17T12:42:37;6.70;;;5.93;;
10162;SDS011;5123;52.556;13.384;2023-08-17T12:45:10;6.72;;;6.13;;
10162;SDS011;5123;52.556;13.384;2023-08-17T12:47:42;6.63;;;5.65;;
10162;SDS011;5123;52.556;13.384;2023-08-17T12:50:15;6.90;;;5.97;;
10162;SDS011;5123;52.556;13.384;2023-08-17T12:52:49;6.45;;;5.88;;
10162;SDS011;5123;52.556;13.384;2023-08-17T12:55:25;7.45;;;6.70;;
10162;SDS011;5123;52.556;13.384;2023-08-17T12:57:59;7.28;;;6.57;;
10162;SDS011;5123;52.556;13.384;2023-08-17T13:00:34;6.78;;;6.18;;
10162;SDS011;5123;52.556;13.384;2023-08-17T13:03:07;10.90;;;7.40;;
10162;SDS011;5123;52.556;13.384;2023-08-17T13:05:43;8.27;;;6.22;;
10162;SDS011;5123;52.556;13.384;2023-08-17T13:08:18;8.68;;;6.90;;
10162;SDS011;5123;52.556;13.384;2023-08-17T13:10:51;8.57;;;6.53;;
10162;SDS011;5123;52.556;13.384;2023-08-17T13:13:25;35.50;;;10.57;;
10162;SDS011;5123;52.556;13.384;2023-08-17T13:15:58;8.98;;;5.80;;
10162;SDS011;5123;52.556;13.384;2023-08-17T13:18:31;6.65;;;6.05;;
10162;SDS011;5123;52.556;13.384;2023-08-17T13:21:03;6.78;;;6.07;;
10162;SDS011;5123;52.556;13.384;2023-08-17T13:23:39;10.20;;;6.45;;
10162;SDS011;5123;52.556;13.384;2023-08-17T13:26:12;9.27;;;6.22;;
10162;SDS011;5123;52.556;13.384;2023-08-17T13:28:48;8.63;;;6.65;;
10162;SDS011;5123;52.556;13.384;2023-08-17T13:31:21;7.63;;;6.90;;
10162;SDS011;5123;52.556;13.384;2023-08-17T13:33:55;7.10;;;6.43;;
10162;SDS011;5123;52.556;13.384;2023-08-17T13:36:28;8.82;;;6.68;;
10162;SDS011;5123;52.556;13.384;2023-08-17T13:39:01;7.10;;;6.40;;
10162;SDS011;5123;52.556;13.384;2023-08-17T13:41:37;11.10;;;7.47;;
10162;SDS011;5123;52.556;13.384;2023-08-17T13:44:18;5.97;;;5.38;;
10162;SDS011;5123;52.556;13.384;2023-08-17T13:46:50;10.23;;;5.90;;
10162;SDS011;5123;52.556;13.384;2023-08-17T13:49:23;6.82;;;6.22;;
10162;SDS011;5123;52.556;13.384;2023-08-17T13:52:04;6.97;;;6.30;;
10162;SDS011;5123;52.556;13.384;2023-08-17T13:54:40;9.32;;;6.57;;
10162;SDS011;5123;52.556;13.384;2023-08-17T13:57:13;6.28;;;5.68;;
10162;SDS011;5123;52.556;13.384;2023-08-17T13:59:47;7.72;;;7.03;;
10162;SDS011;5123;52.556;13.384;2023-08-17T14:02:20;5.55;;;5.05;;
10162;SDS011;5123;52.556;13.384;2023-08-17T14:04:52;6.97;;;5.82;;
10162;SDS011;5123;52.556;13.384;2023-08-17T14:07:25;7.05;;;5.68;;
10162;SDS011;5123;52.556;13.384;2023-08-17T14:10:02;7.70;;;5.30;;
10162;SDS011;5123;52.556;13.384;2023-08-17T14:12:44;6.88;;;6.28;;
10162;SDS011;5123;52.556;13.384;2023-08-17T14:15:18;9.20;;;5.40;;
10162;SDS011;5123;52.556;13.384;2023-08-17T14:17:56;5.57;;;5.18;;
10162;SDS011;5123;52.556;13.384;2023-08-17T14:20:29;6.80;;;5.80;;
10162;SDS011;5123;52.556;13.384;2023-08-17T14:23:02;5.53;;;5.03;;
10162;SDS011;5123;52.556;13.384;2023-08-17T14:25:34;6.90;;;6.30;;
10162;SDS011;5123;52.556;13.384;2023-08-17T14:28:09;5.78;;;5.22;;
10162;SDS011;5123;52.556;13.384;2023-08-17T14:30:43;7.53;;;5.22;;
10162;SDS011;5123;52.556;13.384;2023-08-17T14:33:23;5.80;;;5.30;;
10162;SDS011;5123;52.556;13.384;2023-08-17T14:35:56;10.45;;;6.40;;
10162;SDS011;5123;52.556;13.384;2023-08-17T14:38:30;8.88;;;6.18;;
10162;SDS011;5123;52.556;13.384;2023-08-17T14:41:03;6.60;;;5.80;;
10162;SDS011;5123;52.556;13.384;2023-08-17T14:43:38;16.52;;;6.45;;
10162;SDS011;5123;52.556;13.384;2023-08-17T14:46:12;8.45;;;5.65;;
10162;SDS011;5123;52.556;13.384;2023-08-17T14:48:46;7.18;;;5.72;;
10162;SDS011;5123;52.556;13.384;2023-08-17T14:51:18;8.50;;;5.70;;
10162;SDS011;5123;52.556;13.384;2023-08-17T14:53:51;5.40;;;4.90;;
10162;SDS011;5123;52.556;13.384;2023-08-17T14:56:24;5.38;;;4.93;;
10162;SDS011;5123;52.556;13.384;2023-08-17T14:59:02;7.50;;;4.90;;
10162;SDS011;5123;52.556;13.384;2023-08-17T15:01:42;7.03;;;4.90;;
10162;SDS011;5123;52.556;13.384;2023-08-17T15:04:15;7.30;;;4.53;;
10162;SDS011;5123;52.556;13.384;2023-08-17T15:06:47;6.07;;;5.50;;
10162;SDS011;5123;52.556;13.384;2023-08-17T15:09:20;5.70;;;4.80;;
10162;SDS011;5123;52.556;13.384;2023-08-17T15:11:56;8.90;;;5.93;;
10162;SDS011;5123;52.556;13.384;2023-08-17T15:14:29;7.68;;;4.40;;
10162;SDS011;5123;52.556;13.384;2023-08-17T15:17:03;4.93;;;4.43;;
10162;SDS011;5123;52.556;13.384;2023-08-17T15:19:39;8.35;;;5.32;;
10162;SDS011;5123;52.556;13.384;2023-08-17T15:22:11;5.43;;;4.82;;
10162;SDS011;5123;52.556;13.384;2023-08-17T15:24:47;5.55;;;4.88;;
10162;SDS011;5123;52.556;13.384;2023-08-17T15:27:20;4.97;;;4.57;;
10162;SDS011;5123;52.556;13.384;2023-08-17T15:29:53;6.18;;;4.82;;